Time;durP1;ratioP1;P1;durP2;ratioP2;P2;SDS_P1;SDS_P2;PMS_P1;PMS_P2;Temp;Humidity;BMP_temperature;BMP_pressure;BME280_temperature;BME280_humidity;BME280_pressure;Samples;Min_cycle;Max_cycle;Signal;HPM_P1;HPM_P2
2022/05/05 00:00:53;;;;;;;9.55;4.57;;;10.70;55.10;;;;;;5038773;28;20054;-80
2022/05/05 00:03:19;;;;;;;7.15;3.30;;;10.70;55.20;;;;;;5047908;28;20048;-81
2022/05/05 00:05:45;;;;;;;5.60;3.63;;;10.70;55.20;;;;;;5048066;28;20037;-82
2022/05/05 00:08:12;;;;;;;7.55;4.88;;;10.70;55.20;;;;;;5047510;28;20048;-81
2022/05/05 00:16:11;;;;;;;6.85;3.40;;;10.60;55.30;;;;;;5068767;28;20048;-80
2022/05/05 00:18:37;;;;;;;5.55;3.42;;;10.60;55.40;;;;;;5051524;28;20208;-82
2022/05/05 00:21:03;;;;;;;7.90;3.97;;;10.60;55.40;;;;;;5047969;28;20514;-81
2022/05/05 00:23:29;;;;;;;7.57;3.80;;;10.60;55.40;;;;;;5067363;28;20052;-81
2022/05/05 00:25:55;;;;;;;7.20;3.92;;;10.60;55.50;;;;;;5064913;28;20040;-81
2022/05/05 00:28:21;;;;;;;7.05;3.85;;;10.50;55.50;;;;;;5050083;28;20144;-82
2022/05/05 00:30:47;;;;;;;7.10;4.15;;;10.60;55.60;;;;;;5070385;28;20045;-81
2022/05/05 00:33:12;;;;;;;10.32;6.30;;;10.50;55.60;;;;;;5069196;28;20093;-82
2022/05/05 00:35:39;;;;;;;12.35;6.28;;;10.50;55.70;;;;;;5069374;28;20037;-82
2022/05/05 00:38:05;;;;;;;11.80;7.28;;;10.40;55.80;;;;;;5073147;28;20044;-82
2022/05/05 00:40:31;;;;;;;15.30;7.03;;;10.30;56.10;;;;;;5070556;28;20174;-83
2022/05/05 00:43:00;;;;;;;9.55;6.40;;;10.10;56.20;;;;;;5053712;28;20518;-82
2022/05/05 00:45:26;;;;;;;11.48;6.57;;;10.00;56.60;;;;;;5068863;28;20469;-81
2022/05/05 00:47:52;;;;;;;10.70;6.43;;;9.90;56.70;;;;;;5079717;28;20054;-81
2022/05/05 00:50:22;;;;;;;13.85;6.35;;;9.70;56.90;;;;;;5047522;28;20148;-81
2022/05/05 00:52:48;;;;;;;8.75;5.22;;;9.60;57.20;;;;;;5054000;28;20111;-81
2022/05/05 00:55:13;;;;;;;6.40;4.25;;;9.50;57.40;;;;;;5053942;28;20056;-82
2022/05/05 00:57:39;;;;;;;10.75;4.75;;;9.50;57.50;;;;;;5083104;28;20044;-81
2022/05/05 01:00:05;;;;;;;6.78;4.40;;;9.50;57.60;;;;;;5084309;28;20479;-81
2022/05/05 01:02:33;;;;;;;6.18;4.63;;;9.50;57.60;;;;;;5081630;28;20093;-81
2022/05/05 01:04:59;;;;;;;6.50;4.25;;;9.50;57.60;;;;;;5082183;28;20044;-81
2022/05/05 01:07:25;;;;;;;7.88;5.00;;;9.50;57.60;;;;;;5068901;28;20049;-82
2022/05/05 01:09:51;;;;;;;10.77;5.60;;;9.50;57.70;;;;;;5057445;28;20056;-81
2022/05/05 01:12:17;;;;;;;11.25;5.38;;;9.50;57.70;;;;;;5053546;28;20045;-81
2022/05/05 01:14:44;;;;;;;9.52;5.65;;;9.50;57.70;;;;;;5074724;28;20060;-81
2022/05/05 01:17:10;;;;;;;8.80;5.38;;;9.50;57.70;;;;;;5068240;28;20041;-81
2022/05/05 01:19:35;;;;;;;7.93;4.78;;;9.50;57.90;;;;;;5062749;28;20045;-81
2022/05/05 01:22:03;;;;;;;8.60;5.00;;;9.50;58.00;;;;;;5063489;28;20502;-82
2022/05/05 01:29:58;;;;;;;6.05;4.32;;;9.50;57.90;;;;;;5052999;28;20053;-82
2022/05/05 01:32:31;;;;;;;8.70;4.53;;;9.50;57.80;;;;;;5065588;28;20063;-82
2022/05/05 01:34:56;;;;;;;6.50;3.58;;;9.50;57.90;;;;;;5068941;28;20041;-81
2022/05/05 01:37:22;;;;;;;6.53;4.15;;;9.60;57.90;;;;;;5055196;28;20095;-82
2022/05/05 01:39:48;;;;;;;6.72;4.25;;;9.50;57.70;;;;;;5055012;28;20384;-81
2022/05/05 01:42:13;;;;;;;5.75;4.10;;;9.60;57.80;;;;;;5059721;28;20040;-82
2022/05/05 01:44:39;;;;;;;5.50;3.90;;;9.60;57.70;;;;;;5071578;28;20036;-82
2022/05/05 01:47:05;;;;;;;6.95;4.07;;;9.60;57.70;;;;;;5073988;28;20068;-81
2022/05/05 01:49:30;;;;;;;6.95;3.83;;;9.70;57.70;;;;;;5060656;28;20072;-82
2022/05/05 01:51:56;;;;;;;5.35;3.78;;;9.70;57.60;;;;;;5057028;28;20048;-81
2022/05/05 01:54:22;;;;;;;5.57;3.70;;;9.70;57.60;;;;;;5057054;28;20056;-81
2022/05/05 01:56:47;;;;;;;5.60;3.35;;;9.70;57.60;;;;;;5071635;28;20452;-81
2022/05/05 01:59:13;;;;;;;7.88;3.78;;;9.70;57.50;;;;;;5073848;28;20051;-81
2022/05/05 02:01:38;;;;;;;5.35;3.60;;;9.80;57.40;;;;;;5064401;28;20049;-81
2022/05/05 02:04:04;;;;;;;5.72;3.83;;;9.80;57.40;;;;;;5044629;28;20068;-82
2022/05/05 02:06:30;;;;;;;4.90;3.58;;;9.80;57.30;;;;;;5069255;28;20052;-81
2022/05/05 02:08:57;;;;;;;7.75;4.10;;;9.80;57.30;;;;;;5054295;28;20056;-82
2022/05/05 02:11:23;;;;;;;7.30;4.18;;;9.80;57.20;;;;;;5053928;28;20055;-82
2022/05/05 02:13:49;;;;;;;8.07;3.53;;;9.80;57.10;;;;;;5042987;28;20048;-82
2022/05/05 02:16:14;;;;;;;5.45;3.70;;;9.90;57.10;;;;;;5074354;28;20078;-81
2022/05/05 02:18:40;;;;;;;6.00;3.60;;;9.80;57.00;;;;;;5046111;28;20041;-82
2022/05/05 02:21:06;;;;;;;9.20;4.20;;;9.80;57.00;;;;;;5052020;28;20123;-82
2022/05/05 02:23:31;;;;;;;6.18;3.75;;;9.80;56.90;;;;;;5073333;28;20043;-82
2022/05/05 02:25:57;;;;;;;6.80;4.45;;;9.90;56.90;;;;;;5054063;28;20029;-81
2022/05/05 02:28:23;;;;;;;5.82;3.67;;;9.80;56.90;;;;;;5051644;28;20040;-82
2022/05/05 02:30:48;;;;;;;7.72;4.55;;;9.80;56.90;;;;;;5054464;28;20036;-81
2022/05/05 02:33:14;;;;;;;6.82;3.70;;;9.80;56.90;;;;;;5054036;28;20041;-82
2022/05/05 02:35:40;;;;;;;7.93;4.03;;;9.80;56.80;;;;;;5063188;28;20065;-81
2022/05/05 02:40:50;;;;;;;6.78;4.57;;;9.80;56.80;;;;;;5060854;28;20055;-80
2022/05/05 02:43:15;;;;;;;6.70;3.92;;;9.90;56.80;;;;;;5077582;28;20080;-77
2022/05/05 02:45:41;;;;;;;6.80;4.47;;;9.80;56.70;;;;;;5095745;28;20092;-77
2022/05/05 02:48:07;;;;;;;7.78;4.32;;;9.80;56.70;;;;;;5081014;28;20030;-78
2022/05/05 02:50:33;;;;;;;8.52;4.43;;;9.80;56.70;;;;;;5078000;28;20031;-78
2022/05/05 02:52:58;;;;;;;5.65;4.18;;;9.70;56.70;;;;;;5098282;28;20084;-78
2022/05/05 02:55:24;;;;;;;8.10;4.68;;;9.70;56.70;;;;;;5083197;28;20013;-76
2022/05/05 02:57:51;;;;;;;6.95;4.20;;;9.70;56.70;;;;;;5080528;28;20041;-76
2022/05/05 03:00:17;;;;;;;7.22;4.68;;;9.70;56.70;;;;;;5086590;28;20040;-76
2022/05/05 03:02:44;;;;;;;7.38;4.80;;;9.70;56.80;;;;;;5075023;28;20048;-77
2022/05/05 03:05:11;;;;;;;6.72;4.75;;;9.70;56.80;;;;;;5090507;28;20020;-76
2022/05/05 03:07:37;;;;;;;7.30;4.38;;;9.70;56.80;;;;;;5097812;28;20040;-75
2022/05/05 03:10:04;;;;;;;5.55;4.43;;;9.60;56.80;;;;;;5080071;28;20095;-74
2022/05/05 03:12:30;;;;;;;6.55;4.78;;;9.60;56.80;;;;;;5097962;28;20043;-76
2022/05/05 03:14:55;;;;;;;7.90;4.72;;;9.60;56.80;;;;;;5094846;28;20029;-76
2022/05/05 03:17:21;;;;;;;6.07;4.22;;;9.60;56.80;;;;;;5060557;28;20045;-75
2022/05/05 03:19:47;;;;;;;8.80;5.78;;;9.60;56.80;;;;;;5065998;28;20033;-76
2022/05/05 03:22:12;;;;;;;6.30;4.53;;;9.50;56.70;;;;;;5078319;28;20048;-78
2022/05/05 03:24:38;;;;;;;5.95;4.20;;;9.50;56.70;;;;;;5093456;28;20051;-77
2022/05/05 03:27:04;;;;;;;5.93;4.70;;;9.50;56.80;;;;;;5060634;28;20089;-74
2022/05/05 03:29:32;;;;;;;4.97;4.00;;;9.40;56.80;;;;;;5077184;28;20064;-74
2022/05/05 03:31:58;;;;;;;8.75;5.43;;;9.40;56.90;;;;;;5094883;28;20064;-81
2022/05/05 03:34:23;;;;;;;7.28;4.47;;;9.40;57.30;;;;;;5083861;28;20024;-80
2022/05/05 03:36:49;;;;;;;8.02;5.18;;;9.40;57.00;;;;;;5090340;28;20021;-77
2022/05/05 03:39:15;;;;;;;6.60;4.75;;;9.30;56.90;;;;;;5078387;28;20052;-78
2022/05/05 03:41:40;;;;;;;7.93;4.65;;;9.30;57.00;;;;;;5080434;28;20049;-80
2022/05/05 03:44:07;;;;;;;6.80;4.47;;;9.30;57.00;;;;;;5079818;28;20054;-80
2022/05/05 03:46:33;;;;;;;7.20;5.28;;;9.30;57.00;;;;;;5094385;28;20033;-81
2022/05/05 03:48:59;;;;;;;6.50;4.15;;;9.30;57.10;;;;;;5096828;28;20052;-78
2022/05/05 03:51:25;;;;;;;8.75;5.68;;;9.30;57.10;;;;;;5080300;28;20064;-77
2022/05/05 03:53:51;;;;;;;9.10;6.10;;;9.20;57.10;;;;;;5069986;28;20028;-77
2022/05/05 03:56:17;;;;;;;7.35;4.95;;;9.20;57.10;;;;;;5065637;28;20024;-76
2022/05/05 03:58:42;;;;;;;7.50;5.65;;;9.20;57.10;;;;;;5088479;28;20080;-79
2022/05/05 04:01:08;;;;;;;6.50;4.93;;;9.10;57.10;;;;;;5098030;28;20117;-79
2022/05/05 04:03:36;;;;;;;7.32;5.07;;;9.20;57.20;;;;;;5089412;28;20034;-77
2022/05/05 04:06:05;;;;;;;9.30;5.25;;;9.10;57.10;;;;;;5081485;28;20056;-79
2022/05/05 04:08:31;;;;;;;7.20;5.43;;;9.10;57.10;;;;;;5099534;28;20055;-77
2022/05/05 04:10:57;;;;;;;7.20;4.88;;;9.10;57.00;;;;;;5101255;28;20124;-75
2022/05/05 04:13:25;;;;;;;6.63;4.65;;;9.00;57.00;;;;;;5099301;28;20044;-74
2022/05/05 04:15:51;;;;;;;7.07;4.68;;;9.10;57.10;;;;;;5073298;28;20041;-77
2022/05/05 04:18:16;;;;;;;6.80;4.65;;;9.00;57.10;;;;;;5090833;28;20108;-75
2022/05/05 04:20:42;;;;;;;5.72;4.60;;;9.00;57.10;;;;;;5100377;28;20048;-76
2022/05/05 04:23:08;;;;;;;7.05;5.15;;;9.00;57.20;;;;;;5082204;28;20100;-76
2022/05/05 04:25:39;;;;;;;6.60;4.93;;;9.00;57.20;;;;;;5083145;28;20035;-80
2022/05/05 04:28:06;;;;;;;8.70;5.40;;;9.00;57.20;;;;;;5080243;28;20092;-81
2022/05/05 04:30:32;;;;;;;6.63;4.88;;;9.00;57.30;;;;;;5083097;28;20080;-79
2022/05/05 04:32:58;;;;;;;6.10;4.45;;;9.00;57.30;;;;;;5099387;28;20068;-78
2022/05/05 04:35:23;;;;;;;7.88;4.88;;;8.90;57.20;;;;;;5081740;28;20043;-80
2022/05/05 04:37:49;;;;;;;8.25;5.38;;;8.90;57.20;;;;;;5099378;28;20028;-79
2022/05/05 04:40:15;;;;;;;9.23;4.80;;;8.90;57.20;;;;;;5090592;28;20028;-78
2022/05/05 04:42:41;;;;;;;6.78;4.45;;;8.90;57.20;;;;;;5077555;28;20036;-78
2022/05/05 04:45:07;;;;;;;8.18;5.47;;;8.90;57.30;;;;;;5094663;28;20046;-77
2022/05/05 04:47:33;;;;;;;7.88;6.43;;;8.90;57.40;;;;;;5083216;28;20039;-77
2022/05/05 04:49:59;;;;;;;7.55;6.70;;;8.90;57.40;;;;;;5067121;28;20067;-78
2022/05/05 04:52:25;;;;;;;6.45;5.25;;;8.90;57.40;;;;;;5099022;28;20024;-78
2022/05/05 04:54:51;;;;;;;8.32;6.07;;;8.90;57.50;;;;;;5079646;28;20048;-81
2022/05/05 04:57:17;;;;;;;7.13;5.18;;;8.80;57.50;;;;;;5098954;28;20052;-77
2022/05/05 04:59:43;;;;;;;8.40;5.57;;;8.90;57.70;;;;;;5087467;28;20033;-77
2022/05/05 05:02:09;;;;;;;11.32;6.18;;;8.80;57.80;;;;;;5097808;28;20032;-80
2022/05/05 05:04:34;;;;;;;11.70;6.95;;;8.90;58.00;;;;;;5069392;28;20096;-76
2022/05/05 05:07:00;;;;;;;9.68;6.57;;;8.80;58.10;;;;;;5063766;28;20044;-74
2022/05/05 05:09:26;;;;;;;9.68;6.25;;;8.80;58.20;;;;;;5081143;28;20041;-75
2022/05/05 05:11:51;;;;;;;11.05;6.65;;;8.80;58.20;;;;;;5095124;28;20056;-76
2022/05/05 05:14:17;;;;;;;7.78;6.63;;;8.80;58.20;;;;;;5091679;28;20033;-78
2022/05/05 05:16:43;;;;;;;10.30;6.50;;;8.80;58.20;;;;;;5099178;28;20020;-77
2022/05/05 05:19:08;;;;;;;10.25;6.97;;;8.80;58.20;;;;;;5093490;28;20060;-76
2022/05/05 05:21:34;;;;;;;10.43;6.68;;;8.80;58.20;;;;;;5066947;28;20032;-76
2022/05/05 05:24:00;;;;;;;9.05;6.38;;;8.80;58.30;;;;;;5081090;28;20032;-75
2022/05/05 05:26:25;;;;;;;11.07;7.90;;;8.80;58.30;;;;;;5098582;28;20093;-77
2022/05/05 05:28:51;;;;;;;11.40;6.65;;;8.90;58.80;;;;;;5096280;28;20035;-76
2022/05/05 05:31:16;;;;;;;12.27;7.30;;;8.90;58.60;;;;;;5091255;28;20028;-81
2022/05/05 05:33:42;;;;;;;10.38;6.65;;;8.80;58.90;;;;;;5086654;28;20036;-79
2022/05/05 05:36:08;;;;;;;11.63;7.82;;;8.90;59.10;;;;;;5098654;28;20044;-81
2022/05/05 05:38:34;;;;;;;9.93;8.15;;;8.90;59.40;;;;;;5084300;28;20100;-79
2022/05/05 05:41:01;;;;;;;18.35;8.85;;;8.90;59.80;;;;;;5077246;28;20062;-81
2022/05/05 05:43:26;;;;;;;10.50;8.05;;;9.10;60.10;;;;;;5090677;28;20039;-80
2022/05/05 05:45:52;;;;;;;11.55;7.80;;;9.20;60.30;;;;;;5088434;28;20096;-75
2022/05/05 05:48:18;;;;;;;13.75;8.30;;;9.40;60.60;;;;;;5082066;28;20106;-79
2022/05/05 05:50:44;;;;;;;9.05;7.47;;;9.70;60.80;;;;;;5086396;28;20021;-80
2022/05/05 05:53:10;;;;;;;13.07;8.68;;;10.00;60.20;;;;;;5084995;28;20036;-78
2022/05/05 05:55:36;;;;;;;10.98;8.52;;;10.30;59.90;;;;;;5082396;28;20081;-77
2022/05/05 05:58:02;;;;;;;10.90;8.25;;;10.70;59.70;;;;;;5090860;28;20099;-77
2022/05/05 06:00:28;;;;;;;12.23;8.00;;;11.00;59.50;;;;;;5085401;28;20063;-78
2022/05/05 06:05:38;;;;;;;13.02;7.93;;;11.90;58.50;;;;;;5074163;28;20037;-76
2022/05/05 06:08:04;;;;;;;13.63;7.88;;;12.40;57.80;;;;;;5081190;28;20024;-79
2022/05/05 06:10:31;;;;;;;11.32;7.78;;;12.90;57.40;;;;;;5078898;28;20079;-78
2022/05/05 06:12:57;;;;;;;10.90;7.80;;;13.40;56.60;;;;;;5061612;28;20049;-78
2022/05/05 06:15:23;;;;;;;13.00;7.70;;;13.80;56.10;;;;;;5058002;28;20060;-76
2022/05/05 06:17:50;;;;;;;16.27;8.52;;;14.20;54.80;;;;;;5071664;28;20060;-79
2022/05/05 06:20:16;;;;;;;13.90;7.90;;;14.60;54.30;;;;;;5077811;28;20071;-77
2022/05/05 06:22:41;;;;;;;14.07;8.18;;;14.90;53.30;;;;;;5077422;28;20025;-78
2022/05/05 06:25:08;;;;;;;10.23;7.13;;;15.10;52.80;;;;;;5064833;28;20037;-76
2022/05/05 06:27:34;;;;;;;10.95;7.45;;;15.20;52.30;;;;;;5068124;28;20028;-76
2022/05/05 06:30:02;;;;;;;12.00;6.97;;;15.30;52.00;;;;;;5072518;28;20052;-78
2022/05/05 06:32:27;;;;;;;11.82;6.63;;;15.50;51.80;;;;;;5073694;28;20044;-76
2022/05/05 06:34:54;;;;;;;12.40;7.30;;;15.70;51.50;;;;;;5068224;28;20018;-77
2022/05/05 06:37:20;;;;;;;11.15;5.82;;;16.00;51.10;;;;;;5065330;28;20045;-76
2022/05/05 06:39:45;;;;;;;11.00;6.50;;;16.30;50.10;;;;;;5077054;28;20029;-74
2022/05/05 06:42:11;;;;;;;17.67;7.25;;;16.70;49.50;;;;;;5078547;28;20029;-76
2022/05/05 06:44:37;;;;;;;10.10;6.50;;;17.00;48.60;;;;;;5075156;28;20037;-75
2022/05/05 06:47:04;;;;;;;12.82;6.82;;;17.20;48.30;;;;;;5061565;28;20052;-77
2022/05/05 06:49:29;;;;;;;11.57;5.97;;;17.40;48.00;;;;;;5072075;28;20047;-75
2022/05/05 06:51:55;;;;;;;11.13;6.15;;;17.60;47.80;;;;;;5077104;28;20077;-77
2022/05/05 06:54:20;;;;;;;9.05;5.50;;;17.80;47.80;;;;;;5078324;28;20029;-76
2022/05/05 06:56:46;;;;;;;8.75;5.20;;;17.90;47.40;;;;;;5076899;28;20054;-77
2022/05/05 06:59:12;;;;;;;10.23;6.60;;;18.00;46.60;;;;;;5068280;28;20033;-76
2022/05/05 07:01:53;;;;;;;10.90;6.07;;;18.20;45.60;;;;;;5068617;28;20045;-78
2022/05/05 07:07:05;;;;;;;10.20;5.85;;;18.30;45.20;;;;;;5077560;28;20049;-82
2022/05/05 07:12:16;;;;;;;10.70;5.53;;;18.40;44.10;;;;;;5075227;28;20037;-79
2022/05/05 07:14:45;;;;;;;12.88;6.28;;;18.40;44.60;;;;;;5074659;28;20057;-77
2022/05/05 07:17:14;;;;;;;11.73;5.43;;;18.50;44.40;;;;;;5077106;28;20037;-74
2022/05/05 07:19:40;;;;;;;7.47;4.53;;;18.60;44.40;;;;;;5076737;28;20017;-77
2022/05/05 07:22:07;;;;;;;11.32;5.45;;;18.60;43.70;;;;;;5076633;28;20036;-78
2022/05/05 07:24:32;;;;;;;15.48;6.53;;;18.80;42.80;;;;;;5075821;28;20024;-79
2022/05/05 07:27:00;;;;;;;7.45;5.45;;;18.90;42.90;;;;;;5062213;28;20033;-80
2022/05/05 07:29:26;;;;;;;13.10;5.78;;;19.00;42.60;;;;;;5077912;28;20044;-77
2022/05/05 07:31:51;;;;;;;10.02;5.50;;;19.10;42.20;;;;;;5074028;28;20033;-77
2022/05/05 07:34:18;;;;;;;11.07;5.70;;;19.10;43.00;;;;;;5077840;28;20055;-79
2022/05/05 07:36:44;;;;;;;10.10;4.80;;;19.10;42.40;;;;;;5079692;28;20037;-78
2022/05/05 07:39:10;;;;;;;9.52;5.57;;;19.20;41.80;;;;;;5080714;28;20032;-77
2022/05/05 07:41:36;;;;;;;10.63;5.43;;;19.20;41.90;;;;;;5080342;28;20083;-77
2022/05/05 07:44:02;;;;;;;8.75;5.40;;;19.20;41.70;;;;;;5079727;28;20041;-76
2022/05/05 07:46:28;;;;;;;7.25;4.35;;;19.20;41.30;;;;;;5078805;28;20040;-76
2022/05/05 07:48:54;;;;;;;8.10;4.97;;;19.20;41.60;;;;;;5080052;28;20033;-77
2022/05/05 07:51:20;;;;;;;10.98;5.18;;;19.20;41.50;;;;;;5080189;28;20021;-78
2022/05/05 07:54:34;;;;;;;9.95;4.70;;;19.20;41.60;;;;;;5080756;28;20041;-77
2022/05/05 07:56:31;;;;;;;8.27;4.90;;;19.20;41.30;;;;;;5079270;28;20041;-77
2022/05/05 07:58:57;;;;;;;6.95;4.45;;;19.30;41.30;;;;;;5080023;28;20037;-82
2022/05/05 08:01:22;;;;;;;8.80;4.03;;;19.30;41.30;;;;;;5079018;28;20029;-76
2022/05/05 08:03:48;;;;;;;7.00;4.28;;;19.30;41.70;;;;;;5078223;28;20041;-77
2022/05/05 08:06:13;;;;;;;8.95;5.15;;;19.30;41.70;;;;;;5080055;28;20017;-78
2022/05/05 08:08:39;;;;;;;7.47;4.88;;;19.30;41.70;;;;;;5079764;28;20081;-76
2022/05/05 08:11:05;;;;;;;8.98;5.05;;;19.40;41.50;;;;;;5079669;28;20128;-81
2022/05/05 08:13:34;;;;;;;10.18;5.20;;;19.40;41.40;;;;;;5079763;28;20029;-76
2022/05/05 08:15:59;;;;;;;7.90;4.65;;;19.40;40.90;;;;;;5076304;28;20034;-77
2022/05/05 08:18:25;;;;;;;7.90;4.45;;;19.40;41.00;;;;;;5073142;28;20091;-79
2022/05/05 08:20:51;;;;;;;6.60;5.00;;;19.40;41.10;;;;;;5078599;28;20024;-80
2022/05/05 08:23:17;;;;;;;14.18;7.13;;;19.50;42.10;;;;;;5073200;28;20059;-76
2022/05/05 08:28:28;;;;;;;10.13;5.70;;;19.50;43.70;;;;;;5076144;28;20103;-79
2022/05/05 08:30:53;;;;;;;8.25;5.47;;;19.50;43.30;;;;;;5075768;28;20040;-77
2022/05/05 08:33:19;;;;;;;9.25;5.35;;;19.40;43.40;;;;;;5067197;28;20029;-78
2022/05/05 08:35:45;;;;;;;8.20;5.80;;;19.50;43.30;;;;;;5071702;28;20044;-77
2022/05/05 08:38:10;;;;;;;10.73;6.22;;;19.40;43.20;;;;;;5071202;28;20052;-76
2022/05/05 08:40:40;;;;;;;10.82;6.20;;;19.50;43.50;;;;;;5078427;28;20021;-74
2022/05/05 08:43:06;;;;;;;5.60;4.53;;;19.50;43.50;;;;;;5079033;28;20071;-77
2022/05/05 08:45:33;;;;;;;12.07;5.88;;;19.50;43.30;;;;;;5079348;28;20061;-73
2022/05/05 08:47:59;;;;;;;8.75;5.45;;;19.50;43.30;;;;;;5065729;28;20064;-75
2022/05/05 08:50:25;;;;;;;11.38;6.60;;;19.60;43.60;;;;;;5069950;28;20029;-77
2022/05/05 08:52:51;;;;;;;11.25;6.18;;;19.60;43.40;;;;;;5079478;28;20096;-78
2022/05/05 08:55:19;;;;;;;11.18;6.20;;;19.60;43.50;;;;;;5079330;28;20049;-76
2022/05/05 08:57:45;;;;;;;9.35;5.88;;;19.70;43.60;;;;;;5080346;28;20044;-78
2022/05/05 09:00:15;;;;;;;9.30;6.25;;;19.80;43.10;;;;;;5079339;28;20092;-80
2022/05/05 09:02:42;;;;;;;10.02;6.70;;;19.80;42.80;;;;;;5079333;28;20040;-78
2022/05/05 09:05:09;;;;;;;10.07;5.75;;;19.90;42.30;;;;;;5063855;28;20049;-79
2022/05/05 09:07:52;;;;;;;7.22;4.53;;;20.00;42.50;;;;;;5072362;28;20025;-75
2022/05/05 09:10:19;;;;;;;10.68;5.65;;;20.20;43.00;;;;;;5075425;28;20052;-78
2022/05/05 09:12:57;;;;;;;10.93;5.43;;;20.30;42.20;;;;;;5079332;28;20029;-78
2022/05/05 09:15:33;;;;;;;13.27;5.40;;;20.50;42.80;;;;;;5080760;28;20033;-76
2022/05/05 09:18:16;;;;;;;9.80;6.35;;;20.70;42.10;;;;;;5095126;28;20084;-77
2022/05/05 09:20:43;;;;;;;8.85;5.43;;;20.90;40.30;;;;;;5080965;28;20038;-77
2022/05/05 09:23:08;;;;;;;7.32;5.65;;;21.00;40.70;;;;;;5082853;28;20036;-77
2022/05/05 09:25:44;;;;;;;7.43;5.68;;;21.10;39.60;;;;;;5078967;28;20078;-78
2022/05/05 09:28:21;;;;;;;8.15;5.85;;;21.30;39.70;;;;;;5105812;28;20059;-77
2022/05/05 09:30:53;;;;;;;6.82;4.22;;;21.40;39.10;;;;;;5099364;28;20020;-76
2022/05/05 09:33:36;;;;;;;9.40;5.60;;;21.50;39.70;;;;;;5081018;28;20058;-76
2022/05/05 09:36:04;;;;;;;9.05;6.25;;;21.70;39.40;;;;;;5086743;28;20061;-76
2022/05/05 09:38:53;;;;;;;7.18;4.10;;;21.80;39.50;;;;;;5081187;28;20044;-76
2022/05/05 09:41:32;;;;;;;10.73;5.90;;;21.90;39.50;;;;;;5080809;28;20051;-78
2022/05/05 09:44:20;;;;;;;8.40;5.15;;;22.10;38.90;;;;;;5098618;28;20377;-75
2022/05/05 09:46:46;;;;;;;8.27;5.18;;;22.20;39.00;;;;;;5081661;28;20079;-77
2022/05/05 09:49:14;;;;;;;8.07;5.05;;;22.30;39.10;;;;;;5098118;28;20096;-78
2022/05/05 09:51:44;;;;;;;8.07;5.15;;;22.40;38.90;;;;;;5080152;28;20033;-76
2022/05/05 10:00:45;;;;;;;7.30;4.95;;;22.80;37.50;;;;;;5684940;22;19971;-82
2022/05/05 10:06:06;;;;;;;7.40;6.03;;;23.00;37.70;;;;;;5068664;28;20073;-90
2022/05/05 10:08:42;;;;;;;7.28;4.63;;;23.10;37.50;;;;;;5074756;28;20063;-87
2022/05/05 10:11:09;;;;;;;10.38;4.38;;;23.30;37.70;;;;;;5061763;28;20048;-87
2022/05/05 10:13:37;;;;;;;8.40;5.70;;;23.30;38.10;;;;;;5079889;28;20398;-87
2022/05/05 10:16:04;;;;;;;8.60;5.45;;;23.30;37.60;;;;;;5079372;28;20475;-86
2022/05/05 10:18:38;;;;;;;7.85;6.28;;;23.50;37.50;;;;;;5068442;28;20080;-87
2022/05/05 10:21:06;;;;;;;8.07;6.38;;;23.50;37.10;;;;;;5074413;28;20052;-87
2022/05/05 10:23:42;;;;;;;7.50;5.20;;;23.50;36.80;;;;;;5056035;28;20044;-86
2022/05/05 10:26:10;;;;;;;8.35;6.65;;;23.40;36.80;;;;;;5067978;28;20384;-89
2022/05/05 10:28:44;;;;;;;7.07;6.30;;;23.40;36.90;;;;;;5085446;28;20132;-88
2022/05/05 10:31:30;;;;;;;7.70;5.90;;;23.30;36.40;;;;;;5083598;28;20075;-89
2022/05/05 10:34:01;;;;;;;6.97;6.00;;;23.30;37.10;;;;;;5057503;28;20053;-90
2022/05/05 10:36:28;;;;;;;8.32;6.05;;;23.20;37.10;;;;;;5024114;28;20050;-86
2022/05/05 10:38:55;;;;;;;7.93;6.22;;;23.20;37.00;;;;;;5016293;28;20046;-88
2022/05/05 10:41:45;;;;;;;9.85;7.35;;;23.20;37.10;;;;;;5015011;28;20081;-89
2022/05/05 10:44:16;;;;;;;7.53;5.97;;;23.20;36.90;;;;;;5019371;28;20046;-91
2022/05/05 10:46:51;;;;;;;9.95;7.60;;;23.20;36.90;;;;;;5003854;28;20144;-94
2022/05/05 10:49:32;;;;;;;7.30;6.25;;;23.10;36.60;;;;;;5005937;28;20042;-89
2022/05/05 10:52:10;;;;;;;9.75;6.55;;;23.00;37.40;;;;;;5011845;28;20133;-90
2022/05/05 10:54:37;;;;;;;10.90;7.10;;;23.00;37.80;;;;;;5017142;28;20119;-89
2022/05/05 10:57:24;;;;;;;9.13;7.00;;;22.90;37.50;;;;;;4999827;28;20116;-91
2022/05/05 11:00:13;;;;;;;8.20;5.90;;;22.90;37.60;;;;;;5000120;28;20050;-89
2022/05/05 11:03:02;;;;;;;7.95;6.60;;;22.80;37.70;;;;;;4993890;28;20489;-88
2022/05/05 11:05:28;;;;;;;8.55;6.65;;;22.80;37.70;;;;;;4976329;28;20043;-92
2022/05/05 11:08:17;;;;;;;7.05;6.32;;;22.70;37.50;;;;;;4977768;28;20449;-87
2022/05/05 11:10:47;;;;;;;9.23;6.57;;;22.70;37.60;;;;;;4915970;29;20060;-87
2022/05/05 11:13:37;;;;;;;7.53;5.28;;;22.60;37.90;;;;;;4916080;29;20052;-89
2022/05/05 11:22:20;;;;;;;9.65;6.10;;;22.50;38.50;;;;;;4915887;29;20131;-87
2022/05/05 11:24:50;;;;;;;8.25;6.30;;;22.50;38.70;;;;;;4902914;29;20052;-87
2022/05/05 11:27:18;;;;;;;9.95;6.45;;;22.50;38.70;;;;;;4909758;29;20056;-87
2022/05/05 11:29:50;;;;;;;10.70;7.90;;;22.50;38.60;;;;;;4907949;29;20147;-87
2022/05/05 11:32:15;;;;;;;13.23;8.27;;;22.50;38.30;;;;;;4916405;29;20523;-86
2022/05/05 11:34:41;;;;;;;9.98;7.07;;;22.50;37.90;;;;;;4895739;29;20104;-89
2022/05/05 11:37:08;;;;;;;10.98;7.38;;;22.50;38.30;;;;;;4913814;29;20056;-87
2022/05/05 11:39:35;;;;;;;8.05;6.35;;;22.60;38.80;;;;;;4915835;29;20079;-86
2022/05/05 11:42:09;;;;;;;12.57;7.55;;;22.50;38.50;;;;;;4913493;29;20155;-86
2022/05/05 11:44:40;;;;;;;8.95;7.30;;;22.50;38.50;;;;;;4950668;29;20122;-86
2022/05/05 11:47:24;;;;;;;10.38;7.00;;;22.60;38.40;;;;;;4963102;28;20065;-85
2022/05/05 11:49:52;;;;;;;19.75;8.90;;;22.60;37.00;;;;;;4989415;28;20482;-85
2022/05/05 11:52:23;;;;;;;10.30;6.45;;;22.50;37.10;;;;;;4988936;28;20100;-85
2022/05/05 11:54:51;;;;;;;8.05;6.20;;;22.40;37.30;;;;;;4986667;28;20052;-88
2022/05/05 11:57:39;;;;;;;7.63;5.85;;;22.40;38.40;;;;;;4984219;28;20058;-86
2022/05/05 12:02:55;;;;;;;9.27;6.65;;;22.60;38.00;;;;;;4988577;28;20453;-89
2022/05/05 12:05:22;;;;;;;22.30;10.25;;;22.70;38.30;;;;;;4983727;28;20484;-91
2022/05/05 12:07:50;;;;;;;18.77;9.75;;;22.70;38.60;;;;;;4980513;28;20054;-91
2022/05/05 12:10:17;;;;;;;11.63;8.15;;;22.80;38.90;;;;;;4988949;28;20397;-91
2022/05/05 12:12:48;;;;;;;10.35;7.43;;;22.90;38.90;;;;;;4984409;28;20046;-95
2022/05/05 12:15:16;;;;;;;9.07;6.65;;;22.90;37.90;;;;;;5007433;28;20053;-91
2022/05/05 12:17:47;;;;;;;7.65;6.20;;;22.90;38.20;;;;;;4997217;28;20046;-89
2022/05/05 12:20:16;;;;;;;11.02;7.20;;;23.00;38.80;;;;;;5018807;28;20523;-86
2022/05/05 12:22:43;;;;;;;12.02;8.35;;;23.10;38.60;;;;;;5001177;28;20039;-86
2022/05/05 12:25:17;;;;;;;46.78;18.38;;;23.10;38.50;;;;;;4996788;28;20057;-88
2022/05/05 12:27:44;;;;;;;42.60;18.95;;;23.10;39.10;;;;;;4985775;28;20043;-86
2022/05/05 12:30:12;;;;;;;11.07;7.43;;;23.10;39.50;;;;;;4978664;28;20513;-88
2022/05/05 12:32:50;;;;;;;8.75;6.05;;;23.20;38.40;;;;;;4985526;28;20046;-88
2022/05/05 12:35:27;;;;;;;5.57;4.57;;;23.20;37.10;;;;;;4996868;28;20085;-88
2022/05/05 12:38:00;;;;;;;25.90;10.75;;;23.20;37.20;;;;;;4998093;28;20082;-89
2022/05/05 12:40:27;;;;;;;11.45;6.40;;;23.30;38.60;;;;;;4995764;28;20070;-89
2022/05/05 12:43:06;;;;;;;16.58;7.68;;;23.30;38.50;;;;;;4996835;28;20042;-89
2022/05/05 12:45:34;;;;;;;6.75;4.45;;;23.40;38.50;;;;;;4993927;28;20097;-89
2022/05/05 12:48:01;;;;;;;10.15;5.70;;;23.50;38.50;;;;;;5006946;28;20050;-88
2022/05/05 12:50:49;;;;;;;8.75;5.65;;;23.60;37.90;;;;;;4996518;28;20382;-88
2022/05/05 13:01:35;;;;;;;34.60;16.75;;;23.50;36.70;;;;;;4981637;28;20063;-95
2022/05/05 13:04:05;;;;;;;6.95;4.95;;;23.50;37.70;;;;;;4996612;28;20092;-89
2022/05/05 13:06:35;;;;;;;11.95;5.93;;;23.60;37.20;;;;;;4996506;28;20134;-90
2022/05/05 13:09:01;;;;;;;7.63;3.80;;;23.60;37.30;;;;;;4994776;28;20042;-90
2022/05/05 13:11:26;;;;;;;6.63;4.25;;;23.70;37.10;;;;;;4987826;28;20065;-93
2022/05/05 13:13:53;;;;;;;5.80;4.25;;;23.70;36.80;;;;;;4986338;28;20043;-91
2022/05/05 13:16:39;;;;;;;16.60;9.80;;;23.70;36.60;;;;;;4982646;28;20034;-92
2022/05/05 13:19:05;;;;;;;7.63;5.25;;;23.70;37.00;;;;;;4989200;28;20046;-91
2022/05/05 13:21:50;;;;;;;6.30;4.22;;;23.70;36.90;;;;;;4991215;28;20038;-93
2022/05/05 13:24:18;;;;;;;7.32;4.18;;;23.70;37.00;;;;;;5008308;28;20101;-92
2022/05/05 13:26:46;;;;;;;5.78;4.85;;;23.70;36.80;;;;;;5018102;28;20046;-92
2022/05/05 13:29:13;;;;;;;8.48;5.93;;;23.70;36.90;;;;;;4999991;28;20050;-95
2022/05/05 13:31:40;;;;;;;9.63;6.13;;;23.60;36.80;;;;;;5000060;28;20069;-93
2022/05/05 13:34:06;;;;;;;6.68;5.97;;;23.60;37.00;;;;;;4999396;28;20061;-93
2022/05/05 13:36:32;;;;;;;7.63;4.90;;;23.70;36.60;;;;;;4997742;28;20050;-93
2022/05/05 13:38:59;;;;;;;5.95;5.05;;;23.60;36.40;;;;;;4998859;28;20052;-93
2022/05/05 13:41:24;;;;;;;6.90;5.18;;;23.60;36.60;;;;;;4993392;28;20042;-93
2022/05/05 13:43:50;;;;;;;6.85;4.18;;;23.60;36.60;;;;;;4999390;28;20100;-93